AirNav   Air Wisconsin Up To $57,000 Bonus
 
 1458 users online  

16TE Holly Lake Ranch Airport
Hawkins, Texas, USA

GOING TO HAWKINS?


FAA INFORMATION EFFECTIVE 31 DECEMBER 2020

Location

FAA Identifier: 16TE
Lat/Long: 32-41-51.4860N 095-12-27.8030W
32-41.858100N 095-12.463383W
32.6976350,-95.2077231
(estimated)
Elevation: 409 ft. / 125 m (estimated)
Variation: 08E (1965)
From city: 7 miles N of HAWKINS, TX
Time zone: UTC -6 (UTC -5 during Daylight Saving Time)
Zip code: 75765

Airport Operations

Airport use: Private use. Permission required prior to landing
Activation date: 12/1972
Control tower: no
ARTCC: FORT WORTH CENTER
FSS: FORT WORTH FLIGHT SERVICE STATION
Attendance: UNATNDD
Segmented circle: no
Lights: ACTVT LIRL RY 09/27 - 122.9.

Airport Communications

WX AWOS-3 at JXI (13 nm E): 118.2 (903-734-7313)
WX AWOS-3 at JDD (15 nm W): 118.9 (903-768-3065)

Nearby radio navigation aids

VOR radial/distance  VOR name  Freq  Var
TYRr020/22.8TYLER VOR/DME114.2006E
GGGr299/28.5GREGG COUNTY VORTAC112.9007E
SLRr143/34.5SULPHUR SPRINGS VOR/DME109.0008E

 
NDB name  Hdg/Dist  Freq  Var  ID
AMBASSADOR318/8.340407EABG .- -... --.

Airport Services

Airframe service: NONE
Powerplant service: NONE

Runway Information

Runway 9/27

Dimensions: 2700 x 30 ft. / 823 x 9 m
RY 27 FIRST 500 FT FOR TKOFFS ONLY.
Surface: asphalt
Runway edge lights: low intensity
RUNWAY 9  RUNWAY 27
Traffic pattern: leftleft

Airport Ownership and Management from official FAA records

Ownership: Privately-owned
Owner: SILVERLEAF
PO BOX 358
DALLAS, TX 75221
Phone 214-969-9068
Manager: ROBERT JAMES
RT 1, BOX 698
BIG SANDY, TX 75755
Phone 903-769-3646

Additional Remarks

A52-09 FENCE W END; TREES EA SIDE OF APCH E END.
FOR CD CTC FORT WORTH ARTCC AT 817-858-7584.

Instrument Procedures

There are no published instrument procedures at 16TE.

Some nearby airports with instrument procedures:

KJXI - Fox Stephens Field - Gilmer Municipal Airport (13 nm E)
KJDD - Wood County Airport - Collins Field (15 nm W)
F51 - Winnsboro Municipal Airport (15 nm N)
3F9 - Mineola Airport-Wisener Field (15 nm W)
07F - Gladewater Municipal Airport (16 nm SE)
 
Loc | Ops | Rwys | IFR | FBO | Links
Com | Nav | Svcs | Stats | Notes
Area around 16TE (Holly Lake Ranch Airport)
 
Road maps at: MapQuest Bing Google
 
Aerial photo
WARNING: Photo may not be current or correct
Aerial photo of 16TE (Holly Lake Ranch Airport)
Do you have a better or more recent aerial photo of Holly Lake Ranch Airport that you would like to share? If so, please send us your photo.

 
Sectional chart

 
Airport distance calculator
Flying to Holly Lake Ranch Airport? Find the distance to fly.

From to 16TE

Sunrise and sunset
Times for 27-Jan-2021
 Local
(UTC-6)
 Zulu
(UTC)
Morning civil twilight06:5412:54
Sunrise07:2013:20
Sunset17:4823:48
Evening civil twilight18:1400:14

Current date and time
Zulu (UTC)  27-Jan-2021 20:28:55
Local (UTC-6)  27-Jan-2021 14:28:55
 
METAR
KJXI 
13nm E 
272015Z AUTO 32015G23KT 10SM CLR 11/00 A3030 RMK AO2 T01100000
KJDD 
15nm W 
272015Z AUTO 33015G23KT 10SM CLR 10/00 A3033 RMK AO2
KTYR 
22nm SW 
271953Z 33016G25KT 10SM CLR 13/00 A3028 RMK AO2 SLP254 T01280000
TAF
KTYR 
22nm SW 
271721Z 2718/2818 34016G22KT P6SM SKC FM280000 35008KT P6SM FEW250 FM280900 02006KT P6SM SKC FM281700 09007KT P6SM SKC
NOTAMs
Click for the latest NOTAMs
NOTAMs are issued by the DoD/FAA and will open in a separate window not controlled by AirNav.

 

 
 

Would you like to see your business listed on this page?

 If your business provides an interesting product or service to pilots, flight crews, aircraft, or users of the Holly Lake Ranch Airport, you should consider listing it here.  To start the listing process, click on the button below
 
Add a business
 

Other Pages about Holly Lake Ranch Airport

www.hollylakeranch.com/id217.htm
 
Update a link
 
Copyright © AirNav, LLC. All rights reserved. Privacy Policy  Contact